Time;durP1;ratioP1;P1;durP2;ratioP2;P2;SDS_P1;SDS_P2;PMS_P1;PMS_P2;Temp;Humidity;BMP_temperature;BMP_pressure;BME280_temperature;BME280_humidity;BME280_pressure;Samples;Min_cycle;Max_cycle;Signal;HPM_P1;HPM_P2
2024/04/01 00:00:05;;;;;;;15.77;7.82;;;;;;;9.02;78.80;97643.81;5014563;28;20046;-43
2024/04/01 00:02:30;;;;;;;18.88;7.63;;;;;;;8.99;78.89;97640.41;5014940;28;20061;-44
2024/04/01 00:04:56;;;;;;;16.27;6.10;;;;;;;8.97;78.67;97644.81;5016758;28;20499;-41
2024/04/01 00:07:23;;;;;;;20.70;6.95;;;;;;;8.96;79.13;97637.97;5016282;28;20406;-42
2024/04/01 00:09:49;;;;;;;16.70;8.02;;;;;;;8.96;78.65;97635.38;5016369;28;20053;-41
2024/04/01 00:12:15;;;;;;;17.83;8.48;;;;;;;8.97;78.88;97631.91;5013315;28;20046;-44
2024/04/01 00:14:41;;;;;;;14.85;7.85;;;;;;;8.98;78.62;97628.41;4998933;28;20058;-44
2024/04/01 00:17:08;;;;;;;16.73;8.00;;;;;;;8.96;77.91;97625.06;5019593;28;20070;-43
2024/04/01 00:19:34;;;;;;;17.02;5.82;;;;;;;8.96;78.71;97625.06;5010090;28;20049;-41
2024/04/01 00:22:00;;;;;;;17.33;7.55;;;;;;;8.96;78.68;97625.06;5020820;28;20062;-43
2024/04/01 00:24:26;;;;;;;20.90;8.15;;;;;;;8.97;78.47;97615.56;5018888;28;20503;-44
2024/04/01 00:26:52;;;;;;;17.17;7.55;;;;;;;8.96;79.28;97619.03;5012003;28;20791;-44
2024/04/01 00:29:18;;;;;;;18.27;7.90;;;;;;;8.95;78.72;97615.59;5012291;28;20057;-41
2024/04/01 00:31:45;;;;;;;15.85;7.43;;;;;;;8.96;78.90;97619.03;5012946;28;20049;-42
2024/04/01 00:34:11;;;;;;;16.20;5.28;;;;;;;8.95;79.01;97612.19;5021701;28;20433;-44
2024/04/01 00:36:37;;;;;;;13.27;7.13;;;;;;;8.95;78.48;97618.19;5016395;28;20045;-42
2024/04/01 00:39:04;;;;;;;17.25;8.18;;;;;;;8.95;78.75;97618.19;5014646;28;20585;-43
2024/04/01 00:41:30;;;;;;;17.30;7.90;;;;;;;8.95;79.07;97618.19;5017417;28;20050;-43
2024/04/01 00:43:56;;;;;;;16.98;7.25;;;;;;;8.94;78.64;97616.50;5014464;28;20054;-42
2024/04/01 00:46:23;;;;;;;20.50;7.80;;;;;;;8.93;79.00;97620.00;5028538;28;20060;-41
2024/04/01 00:48:51;;;;;;;15.02;7.95;;;;;;;8.94;79.02;97629.41;5014101;28;20046;-42
2024/04/01 00:51:18;;;;;;;15.93;5.40;;;;;;;8.93;78.83;97625.16;5015163;28;20058;-42
2024/04/01 00:53:46;;;;;;;20.13;7.20;;;;;;;8.93;78.51;97627.75;5019540;28;20061;-43
2024/04/01 00:56:16;;;;;;;15.52;7.70;;;;;;;8.92;79.00;97633.78;5022553;28;20541;-43
2024/04/01 00:58:42;;;;;;;14.80;8.23;;;;;;;8.91;78.89;97626.94;4998303;28;20053;-44
2024/04/01 01:01:08;;;;;;;19.10;7.82;;;;;;;8.92;79.06;97632.94;5014552;28;20713;-42
2024/04/01 01:03:34;;;;;;;13.45;7.68;;;;;;;8.93;79.21;97639.78;5011983;28;20108;-43
2024/04/01 01:06:02;;;;;;;16.92;5.78;;;;;;;8.94;79.01;97637.16;5015971;28;20701;-42
2024/04/01 01:08:29;;;;;;;12.73;5.45;;;;;;;8.95;79.35;97633.66;5023256;28;20227;-42
2024/04/01 01:10:54;;;;;;;17.88;7.80;;;;;;;8.96;78.86;97635.38;5008687;28;20056;-46
2024/04/01 01:13:20;;;;;;;18.98;7.63;;;;;;;8.95;79.05;97628.50;5014047;28;20045;-42
2024/04/01 01:15:46;;;;;;;14.18;5.43;;;;;;;8.97;78.62;97636.22;5014400;28;20053;-40
2024/04/01 01:18:12;;;;;;;15.27;6.90;;;;;;;8.97;79.33;97631.03;5043506;28;20057;-44
2024/04/01 01:20:37;;;;;;;18.13;7.78;;;;;;;8.97;78.83;97625.88;5008933;28;20464;-41
2024/04/01 01:23:04;;;;;;;13.00;4.90;;;;;;;8.98;78.97;97627.56;5018161;28;20064;-42
2024/04/01 01:25:30;;;;;;;15.63;7.50;;;;;;;8.98;78.96;97618.09;5017142;28;20053;-43
2024/04/01 01:27:55;;;;;;;16.15;7.00;;;;;;;9.00;79.10;97620.63;5017535;28;20517;-43
2024/04/01 01:30:21;;;;;;;16.98;7.82;;;;;;;8.97;79.15;97606.06;5015663;28;20049;-42
2024/04/01 01:32:53;;;;;;;15.02;7.25;;;;;;;8.97;79.25;97618.97;5022723;28;20111;-46
2024/04/01 01:35:22;;;;;;;16.40;7.30;;;;;;;8.99;78.79;97621.53;4996082;28;20053;-43
2024/04/01 01:37:49;;;;;;;15.30;7.10;;;;;;;9.00;78.88;97624.06;5013262;28;20049;-45
2024/04/01 01:40:15;;;;;;;13.82;6.80;;;;;;;9.03;79.07;97624.81;5011211;28;20050;-43
2024/04/01 01:42:40;;;;;;;16.15;7.45;;;;;;;9.04;78.97;97626.50;5016072;28;20060;-42
2024/04/01 01:45:07;;;;;;;15.98;7.55;;;;;;;9.06;79.00;97625.56;5042719;28;20443;-44
2024/04/01 01:47:34;;;;;;;16.98;7.65;;;;;;;9.08;78.62;97626.34;5015377;28;20519;-43
2024/04/01 01:50:00;;;;;;;14.63;5.93;;;;;;;9.08;78.85;97622.91;5019486;28;20682;-41
2024/04/01 01:52:26;;;;;;;12.75;7.00;;;;;;;9.09;78.63;97624.63;5002269;28;20045;-45
2024/04/01 01:54:53;;;;;;;14.80;6.57;;;;;;;9.11;78.69;97622.81;5012373;28;20053;-47
2024/04/01 01:57:18;;;;;;;14.18;7.47;;;;;;;9.12;78.60;97635.66;5026578;28;20709;-43
2024/04/01 01:59:44;;;;;;;15.38;6.47;;;;;;;9.12;78.53;97625.34;5008290;28;20057;-41
2024/04/01 02:02:11;;;;;;;15.60;7.00;;;;;;;9.13;78.69;97626.19;5018414;28;20058;-42
2024/04/01 02:04:37;;;;;;;16.75;7.43;;;;;;;9.11;78.71;97622.81;4998027;28;20069;-44
2024/04/01 02:07:05;;;;;;;16.67;6.35;;;;;;;9.10;78.38;97626.28;5001564;28;20034;-43
2024/04/01 02:09:32;;;;;;;15.10;7.65;;;;;;;9.10;78.39;97628.88;4994660;28;20046;-42
2024/04/01 02:11:58;;;;;;;17.13;7.22;;;;;;;9.09;78.09;97624.63;4996743;28;20490;-44
2024/04/01 02:14:24;;;;;;;14.30;7.40;;;;;;;9.09;78.79;97627.19;4994192;28;20050;-45
2024/04/01 02:16:50;;;;;;;14.88;7.47;;;;;;;9.07;78.61;97632.41;4992666;28;20104;-42
2024/04/01 02:19:16;;;;;;;16.45;7.80;;;;;;;9.08;78.46;97633.22;4995609;28;20046;-44
2024/04/01 02:21:45;;;;;;;15.32;6.72;;;;;;;9.07;78.90;97631.56;5001088;28;20046;-41
2024/04/01 02:24:11;;;;;;;14.65;6.82;;;;;;;9.06;78.08;97635.03;4991351;28;20058;-44
2024/04/01 02:26:37;;;;;;;17.52;7.68;;;;;;;9.06;78.18;97637.63;4998112;28;20084;-44
2024/04/01 02:29:05;;;;;;;15.93;6.05;;;;;;;9.06;78.60;97646.22;5001259;28;20462;-42
2024/04/01 02:31:30;;;;;;;16.55;7.32;;;;;;;9.05;78.34;97648.84;4997559;28;20049;-41
2024/04/01 02:33:56;;;;;;;12.27;5.15;;;;;;;9.07;78.68;97647.06;5003133;28;20065;-43
2024/04/01 02:36:22;;;;;;;16.08;7.57;;;;;;;9.07;78.34;97649.63;4993402;28;20767;-43
2024/04/01 02:38:48;;;;;;;13.93;7.20;;;;;;;9.06;78.60;97651.38;5020225;28;20057;-44
2024/04/01 02:41:14;;;;;;;16.77;7.05;;;;;;;9.07;78.32;97642.75;5018484;28;20049;-41
2024/04/01 02:43:39;;;;;;;14.40;6.72;;;;;;;9.08;78.31;97640.97;4992810;28;20057;-42
2024/04/01 02:46:05;;;;;;;16.20;8.10;;;;;;;9.07;78.75;97642.75;5010304;28;20045;-44
2024/04/01 02:48:31;;;;;;;13.65;4.60;;;;;;;9.08;78.51;97640.97;5009043;28;20109;-44
2024/04/01 02:50:57;;;;;;;17.20;6.82;;;;;;;9.06;78.33;97635.03;5005263;28;20042;-42
2024/04/01 02:53:22;;;;;;;14.23;7.22;;;;;;;9.06;78.17;97629.88;4993385;28;20065;-42
2024/04/01 02:55:48;;;;;;;18.30;8.40;;;;;;;9.04;77.93;97626.50;4982704;28;20054;-43
2024/04/01 02:58:13;;;;;;;15.18;5.80;;;;;;;9.05;78.35;97633.38;4997489;28;20042;-41
2024/04/01 03:00:39;;;;;;;13.10;6.80;;;;;;;9.06;78.44;97640.22;4996130;28;20054;-42
2024/04/01 03:03:05;;;;;;;16.85;7.47;;;;;;;9.05;77.84;97634.19;5009527;28;20050;-43
2024/04/01 03:05:30;;;;;;;17.80;8.43;;;;;;;9.05;78.00;97639.34;4989055;28;20649;-43
2024/04/01 03:07:56;;;;;;;14.95;7.78;;;;;;;9.06;78.25;97629.88;4994589;28;20455;-44
2024/04/01 03:10:22;;;;;;;15.05;6.97;;;;;;;9.06;78.14;97629.88;4998447;28;20050;-42
2024/04/01 03:12:48;;;;;;;15.10;8.32;;;;;;;9.05;78.90;97628.22;5003376;28;20140;-42
2024/04/01 03:15:16;;;;;;;14.43;6.97;;;;;;;9.04;78.16;97619.59;4998374;28;20050;-43
2024/04/01 03:17:43;;;;;;;20.92;9.77;;;;;;;9.03;78.38;97617.06;5001326;28;20494;-43
2024/04/01 03:20:11;;;;;;;13.07;7.55;;;;;;;9.00;78.19;97613.72;5001587;28;20050;-44
2024/04/01 03:22:36;;;;;;;14.23;6.60;;;;;;;8.99;78.30;97606.84;5003054;28;20093;-43
2024/04/01 03:25:02;;;;;;;14.95;7.00;;;;;;;8.97;78.21;97606.06;4997912;28;20129;-43
2024/04/01 03:27:28;;;;;;;15.07;7.80;;;;;;;8.95;78.25;97602.69;4989623;28;20088;-42
2024/04/01 03:29:53;;;;;;;16.48;5.82;;;;;;;8.95;78.32;97599.28;4991686;28;20097;-43
2024/04/01 03:32:19;;;;;;;16.02;6.93;;;;;;;8.92;78.42;97582.16;5001016;28;20074;-43
2024/04/01 03:34:47;;;;;;;14.93;6.82;;;;;;;8.90;78.04;97573.63;4999044;28;20133;-42
2024/04/01 03:37:13;;;;;;;15.05;5.85;;;;;;;8.88;78.32;97580.56;4995916;28;20064;-43
2024/04/01 03:39:42;;;;;;;14.27;8.13;;;;;;;8.87;78.49;97578.91;4977356;28;20124;-44
2024/04/01 03:42:08;;;;;;;15.23;7.00;;;;;;;8.85;78.58;97585.88;4975893;28;20742;-41
2024/04/01 03:44:33;;;;;;;18.77;8.30;;;;;;;8.85;78.25;97585.88;5002825;28;20052;-43
2024/04/01 03:46:59;;;;;;;14.80;6.93;;;;;;;8.85;78.33;97591.03;4995301;28;20050;-42
2024/04/01 03:49:25;;;;;;;12.07;6.60;;;;;;;8.85;78.68;97576.38;4991980;28;20045;-44
2024/04/01 03:51:50;;;;;;;14.98;5.70;;;;;;;8.83;78.75;97577.31;5001437;28;20457;-42
2024/04/01 03:54:16;;;;;;;15.00;7.13;;;;;;;8.80;78.60;97578.28;5004403;28;20662;-41
2024/04/01 03:56:42;;;;;;;17.55;7.47;;;;;;;8.82;78.33;97585.97;4999557;28;20088;-44
2024/04/01 03:59:08;;;;;;;17.08;7.50;;;;;;;8.82;78.56;97601.47;4996013;28;20665;-41
2024/04/01 04:01:34;;;;;;;14.90;5.25;;;;;;;8.82;78.64;97606.63;4996864;28;20046;-42
2024/04/01 04:04:00;;;;;;;15.70;7.22;;;;;;;8.84;78.52;97612.56;4996891;28;20056;-40
2024/04/01 04:06:26;;;;;;;18.05;7.43;;;;;;;8.82;77.92;97622.09;4999487;28;20475;-43
2024/04/01 04:08:51;;;;;;;16.80;4.85;;;;;;;8.78;78.12;97626.50;4997584;28;20058;-42
2024/04/01 04:11:17;;;;;;;12.95;7.63;;;;;;;8.76;78.79;97637.78;4990507;28;20525;-43
2024/04/01 04:13:43;;;;;;;16.40;8.02;;;;;;;8.73;78.66;97639.59;4997075;28;20081;-41
2024/04/01 04:16:09;;;;;;;18.55;8.20;;;;;;;8.71;78.89;97641.38;4992710;28;20042;-41
2024/04/01 04:18:35;;;;;;;12.00;6.15;;;;;;;8.71;78.86;97643.94;5003425;28;20076;-43
2024/04/01 04:21:01;;;;;;;17.42;6.82;;;;;;;8.70;78.90;97644.84;4994179;28;20076;-44
2024/04/01 04:23:28;;;;;;;16.95;7.20;;;;;;;8.73;78.94;97644.75;5002555;28;20458;-45
2024/04/01 04:25:54;;;;;;;18.92;7.28;;;;;;;8.76;78.67;97642.94;5021798;28;20046;-40
2024/04/01 04:28:20;;;;;;;15.07;6.75;;;;;;;8.79;78.96;97648.03;4996816;28;20041;-43
2024/04/01 04:30:45;;;;;;;16.10;7.38;;;;;;;8.82;78.69;97647.91;4984586;28;20049;-40
2024/04/01 04:33:11;;;;;;;15.32;6.90;;;;;;;8.83;78.64;97644.44;4999146;28;20066;-41
2024/04/01 04:35:36;;;;;;;14.15;5.53;;;;;;;8.85;79.23;97660.72;4998337;28;20582;-41
2024/04/01 04:38:02;;;;;;;16.90;7.75;;;;;;;8.84;78.81;97659.88;4993453;28;20138;-42
2024/04/01 04:40:28;;;;;;;12.70;4.97;;;;;;;8.84;78.65;97659.88;4993761;28;20415;-43
2024/04/01 04:42:54;;;;;;;15.40;7.93;;;;;;;8.85;78.83;97663.31;4988018;28;20046;-41
2024/04/01 04:45:23;;;;;;;15.82;7.30;;;;;;;8.85;79.04;97664.13;4993300;28;20058;-44
2024/04/01 04:47:50;;;;;;;23.17;7.55;;;;;;;8.84;78.48;97667.63;4997338;28;20058;-44
2024/04/01 04:50:16;;;;;;;17.65;8.30;;;;;;;8.85;78.72;97668.47;4998663;28;20569;-44
2024/04/01 04:52:42;;;;;;;14.43;7.50;;;;;;;8.84;78.00;97669.34;5002906;28;20050;-43
2024/04/01 04:55:08;;;;;;;16.13;5.22;;;;;;;8.85;78.46;97668.47;4994107;28;20944;-42
2024/04/01 04:57:33;;;;;;;17.17;8.02;;;;;;;8.84;78.51;97667.63;5001395;28;20074;-43
2024/04/01 04:59:59;;;;;;;15.10;7.53;;;;;;;8.84;78.86;97671.91;4997640;28;20050;-41
2024/04/01 05:02:25;;;;;;;14.85;7.40;;;;;;;8.84;78.61;97666.75;5019770;28;20050;-43
2024/04/01 05:04:51;;;;;;;16.73;7.38;;;;;;;8.83;78.64;97665.94;4998947;28;20065;-42
2024/04/01 05:07:17;;;;;;;15.00;6.05;;;;;;;8.85;78.56;97673.63;4996248;28;20473;-42
2024/04/01 05:09:42;;;;;;;17.55;7.53;;;;;;;8.84;78.63;97672.78;5001110;28;20137;-42
2024/04/01 05:12:08;;;;;;;21.38;7.90;;;;;;;8.81;78.95;97669.47;4989900;28;20046;-41
2024/04/01 05:14:34;;;;;;;19.60;7.20;;;;;;;8.78;79.08;97669.56;5004234;28;20057;-42
2024/04/01 05:16:59;;;;;;;16.60;7.40;;;;;;;8.74;78.69;97672.25;4991175;28;20063;-42
2024/04/01 05:19:25;;;;;;;21.10;7.85;;;;;;;8.73;78.85;97674.88;4998633;28;20064;-41
2024/04/01 05:21:50;;;;;;;14.52;7.03;;;;;;;8.70;78.89;97683.56;5000495;28;20061;-44
2024/04/01 05:24:16;;;;;;;13.55;5.88;;;;;;;8.68;78.74;97695.66;4976864;28;20046;-42
2024/04/01 05:26:43;;;;;;;12.50;6.55;;;;;;;8.67;78.97;97706.88;4982308;28;20057;-42
2024/04/01 05:29:09;;;;;;;12.45;4.85;;;;;;;8.64;79.01;97713.91;4982201;28;20428;-44
2024/04/01 05:31:35;;;;;;;15.57;7.88;;;;;;;8.59;79.14;97717.47;5001787;28;20046;-42
2024/04/01 05:34:03;;;;;;;15.75;7.25;;;;;;;8.59;79.69;97716.63;5003954;28;20065;-43
2024/04/01 05:36:31;;;;;;;10.85;5.65;;;;;;;8.57;79.48;97716.66;4993539;28;20080;-41
2024/04/01 05:38:57;;;;;;;7.88;4.95;;;;;;;8.55;79.40;97713.28;4985007;28;20065;-41
2024/04/01 05:41:23;;;;;;;20.60;6.03;;;;;;;8.56;79.54;97714.13;4997928;28;20062;-41
2024/04/01 05:43:49;;;;;;;12.60;6.20;;;;;;;8.55;79.54;97707.28;4996398;28;20517;-41
2024/04/01 05:46:15;;;;;;;11.95;6.25;;;;;;;8.55;79.51;97718.44;5001721;28;20137;-44
2024/04/01 05:48:41;;;;;;;11.55;5.88;;;;;;;8.55;79.75;97718.44;4986988;28;20541;-43
2024/04/01 05:51:08;;;;;;;11.57;5.97;;;;;;;8.53;78.94;97714.19;4996001;28;20049;-41
2024/04/01 05:53:34;;;;;;;8.45;4.75;;;;;;;8.55;79.39;97720.19;4992417;28;20585;-42
2024/04/01 05:56:03;;;;;;;12.38;5.93;;;;;;;8.55;79.22;97717.63;5004113;28;20054;-40
2024/04/01 05:58:29;;;;;;;9.43;4.80;;;;;;;8.54;79.15;97715.94;4995890;28;20046;-42
2024/04/01 06:00:55;;;;;;;8.35;4.68;;;;;;;8.56;79.55;97724.44;5000857;28;20084;-43
2024/04/01 06:03:22;;;;;;;6.85;3.22;;;;;;;8.57;79.05;97720.97;4999672;28;20057;-40
2024/04/01 06:05:48;;;;;;;8.88;4.72;;;;;;;8.57;79.01;97718.41;5008714;28;20066;-40
2024/04/01 06:08:13;;;;;;;7.68;4.47;;;;;;;8.58;79.30;97717.53;5006605;28;20053;-42
2024/04/01 06:10:39;;;;;;;9.32;4.70;;;;;;;8.57;79.72;97715.81;4994666;28;20066;-41
2024/04/01 06:13:04;;;;;;;7.57;4.18;;;;;;;8.58;79.04;97725.25;5001014;28;20085;-41
2024/04/01 06:15:30;;;;;;;7.50;3.60;;;;;;;8.58;79.36;97720.09;5002906;28;20100;-41
2024/04/01 06:17:56;;;;;;;6.70;3.55;;;;;;;8.57;79.46;97726.13;4993973;28;20053;-41
2024/04/01 06:20:22;;;;;;;6.28;3.70;;;;;;;8.56;79.14;97724.44;5023536;28;20053;-40
2024/04/01 06:22:47;;;;;;;7.05;3.65;;;;;;;8.56;78.81;97724.44;5020229;28;20042;-41
2024/04/01 06:25:13;;;;;;;4.10;1.60;;;;;;;8.55;78.87;97722.78;5009370;28;20046;-41
2024/04/01 06:27:38;;;;;;;5.68;3.92;;;;;;;8.51;79.17;97716.81;5000590;28;20057;-41
2024/04/01 06:30:05;;;;;;;4.50;4.13;;;;;;;8.48;79.19;97717.75;5001753;28;20528;-42
2024/04/01 06:32:31;;;;;;;1.33;0.80;;;;;;;8.47;79.08;97715.22;5022086;28;20490;-42
2024/04/01 06:34:56;;;;;;;2.47;2.15;;;;;;;8.45;78.81;97722.19;4992506;28;20054;-41
2024/04/01 06:37:22;;;;;;;2.58;2.00;;;;;;;8.44;79.10;97721.34;4998362;28;20165;-42
2024/04/01 06:39:47;;;;;;;3.75;2.45;;;;;;;8.44;78.59;97716.19;4995707;28;20046;-42
2024/04/01 06:42:13;;;;;;;2.30;2.10;;;;;;;8.45;78.64;97717.84;5001013;28;20114;-41
2024/04/01 06:44:39;;;;;;;2.85;2.65;;;;;;;8.47;79.00;97726.41;4997385;28;20492;-41
2024/04/01 06:47:05;;;;;;;2.15;0.90;;;;;;;8.49;78.93;97719.44;5000373;28;20470;-41
2024/04/01 06:49:30;;;;;;;3.33;2.22;;;;;;;8.53;79.10;97729.69;4999432;28;20046;-40
2024/04/01 06:51:56;;;;;;;3.33;3.00;;;;;;;8.59;79.01;97735.53;5004731;28;20046;-40
2024/04/01 06:54:21;;;;;;;2.47;1.02;;;;;;;8.64;79.44;97740.53;5003337;28;20046;-41
2024/04/01 06:56:47;;;;;;;4.50;2.55;;;;;;;8.66;78.62;97736.19;5001964;28;20718;-42
2024/04/01 06:59:13;;;;;;;3.45;2.78;;;;;;;8.73;78.71;97732.50;5001609;28;20054;-41
2024/04/01 07:01:39;;;;;;;3.60;2.72;;;;;;;8.79;78.71;97741.78;4997231;28;20088;-41
2024/04/01 07:04:04;;;;;;;5.60;3.17;;;;;;;8.88;78.84;97740.63;4995721;28;20046;-41
2024/04/01 07:06:30;;;;;;;4.13;3.13;;;;;;;8.98;78.89;97739.44;5004860;28;20559;-41
2024/04/01 07:08:55;;;;;;;3.85;1.30;;;;;;;9.09;78.75;97740.81;5000912;28;20128;-41
2024/04/01 07:11:21;;;;;;;4.95;2.70;;;;;;;9.19;78.46;97749.91;4996933;28;20058;-41
2024/04/01 07:13:47;;;;;;;3.47;3.15;;;;;;;9.25;78.93;97741.97;4995879;28;20050;-41
2024/04/01 07:16:12;;;;;;;3.63;2.75;;;;;;;9.35;78.98;97733.88;4999429;28;20101;-41
2024/04/01 07:18:38;;;;;;;5.30;3.83;;;;;;;9.51;78.36;97740.22;4997762;28;20058;-43
2024/04/01 07:21:04;;;;;;;7.03;2.88;;;;;;;10.03;78.86;97739.19;4997096;28;20064;-41
2024/04/01 07:23:30;;;;;;;3.22;2.63;;;;;;;10.18;78.09;97733.50;5002693;28;20052;-42
2024/04/01 07:25:55;;;;;;;5.57;3.80;;;;;;;10.18;77.94;97729.19;4993912;28;20514;-43
2024/04/01 07:28:21;;;;;;;4.65;4.05;;;;;;;10.12;77.49;97734.56;5000631;28;20056;-41
2024/04/01 07:30:47;;;;;;;4.25;3.35;;;;;;;10.09;78.22;97732.94;4995253;28;20063;-40
2024/04/01 07:33:12;;;;;;;3.28;2.70;;;;;;;10.48;77.96;97730.66;4995678;28;20041;-41
2024/04/01 07:35:38;;;;;;;6.43;4.78;;;;;;;11.03;77.58;97727.56;4999596;28;20054;-41
2024/04/01 07:38:04;;;;;;;4.63;3.75;;;;;;;11.23;77.11;97733.66;4989294;28;20054;-41
2024/04/01 07:40:29;;;;;;;7.38;4.07;;;;;;;11.39;75.92;97732.97;4999512;28;20136;-42
2024/04/01 07:42:55;;;;;;;3.05;2.05;;;;;;;12.17;75.67;97732.16;4992932;28;20842;-40
2024/04/01 07:45:21;;;;;;;7.00;5.18;;;;;;;13.14;74.29;97730.13;5000197;28;20062;-42
2024/04/01 07:47:46;;;;;;;4.72;3.33;;;;;;;13.93;72.76;97727.84;4996640;28;20073;-41
2024/04/01 07:50:12;;;;;;;3.35;1.50;;;;;;;14.52;70.18;97735.03;4998501;28;20065;-45
2024/04/01 07:52:39;;;;;;;4.10;3.15;;;;;;;14.94;68.77;97743.16;4991941;28;20469;-41
2024/04/01 07:55:05;;;;;;;4.18;3.25;;;;;;;15.29;67.90;97739.38;4991259;28;20077;-41
2024/04/01 07:57:31;;;;;;;3.42;1.65;;;;;;;15.73;67.07;97742.00;4994395;28;20046;-41
2024/04/01 07:59:57;;;;;;;3.42;2.25;;;;;;;15.91;65.62;97746.09;4998542;28;20941;-41
2024/04/01 08:02:23;;;;;;;2.92;1.55;;;;;;;15.94;64.94;97742.47;5020100;28;20086;-42
2024/04/01 08:04:49;;;;;;;1.75;1.27;;;;;;;15.83;63.91;97753.56;4997443;28;20133;-41
2024/04/01 08:07:15;;;;;;;3.72;1.52;;;;;;;15.11;62.87;97750.00;4991211;28;20054;-41
2024/04/01 08:09:41;;;;;;;2.75;1.05;;;;;;;14.38;63.98;97749.69;4990228;28;20128;-41
2024/04/01 08:12:08;;;;;;;4.20;1.77;;;;;;;13.69;64.84;97754.25;4994256;28;20058;-42
2024/04/01 08:14:34;;;;;;;4.35;1.60;;;;;;;13.17;65.91;97762.00;4976185;28;20112;-44
2024/04/01 08:17:00;;;;;;;1.48;0.85;;;;;;;12.71;67.53;97755.56;4996342;28;20107;-40
2024/04/01 08:19:28;;;;;;;2.70;1.50;;;;;;;12.78;67.89;97758.72;4999231;28;20042;-42
2024/04/01 08:21:54;;;;;;;1.63;0.70;;;;;;;12.85;67.58;97754.06;4992680;28;20073;-42
2024/04/01 08:24:19;;;;;;;2.50;1.05;;;;;;;12.99;68.28;97758.56;4991971;28;20065;-42
2024/04/01 08:26:45;;;;;;;3.38;1.30;;;;;;;12.87;67.66;97759.19;5001589;28;20077;-42
2024/04/01 08:29:13;;;;;;;2.83;1.52;;;;;;;12.59;67.46;97757.00;4996621;28;20061;-42
2024/04/01 08:31:39;;;;;;;1.73;1.08;;;;;;;12.68;67.56;97760.06;4997464;28;20065;-43
2024/04/01 08:34:04;;;;;;;3.05;1.33;;;;;;;13.60;68.41;97759.00;4991799;28;20050;-43
2024/04/01 08:36:30;;;;;;;18.33;8.00;;;;;;;14.50;66.11;97765.56;4995497;28;20041;-44
2024/04/01 08:38:55;;;;;;;17.15;8.20;;;;;;;15.43;65.19;97756.81;4992674;28;20048;-43
2024/04/01 08:41:30;;;;;;;8.35;4.82;;;;;;;16.05;62.45;97762.72;4996508;28;20516;-42
2024/04/01 08:44:13;;;;;;;8.38;4.60;;;;;;;15.67;61.25;97775.38;5002640;28;20119;-43
2024/04/01 08:46:41;;;;;;;2.72;1.85;;;;;;;15.09;61.51;97777.91;5000322;28;20053;-44
2024/04/01 08:49:11;;;;;;;5.90;2.85;;;;;;;14.60;61.72;97784.97;4971432;28;20506;-43
2024/04/01 08:51:38;;;;;;;3.08;1.60;;;;;;;14.14;63.81;97783.94;5006732;28;20075;-42
2024/04/01 08:54:07;;;;;;;8.52;4.28;;;;;;;13.85;64.19;97788.94;5008131;28;20061;-41
2024/04/01 08:56:36;;;;;;;6.40;2.25;;;;;;;13.72;64.55;97793.09;5025252;28;20745;-43
2024/04/01 08:59:02;;;;;;;4.13;1.30;;;;;;;14.17;64.90;97787.28;4995685;28;20512;-43
2024/04/01 09:01:27;;;;;;;5.15;2.60;;;;;;;14.90;63.28;97791.97;4988569;28;20054;-43
2024/04/01 09:03:54;;;;;;;4.10;2.00;;;;;;;15.68;62.88;97792.72;4997685;28;20480;-41
2024/04/01 09:06:20;;;;;;;7.18;2.95;;;;;;;16.54;62.93;97797.97;4982036;28;20050;-42
2024/04/01 09:08:48;;;;;;;1.63;1.27;;;;;;;17.25;60.94;97801.38;4979811;28;20058;-43
2024/04/01 09:11:14;;;;;;;2.03;0.82;;;;;;;17.66;57.53;97802.97;4998115;28;20076;-41
2024/04/01 09:13:40;;;;;;;1.60;1.13;;;;;;;18.13;58.06;97812.91;4987119;28;20054;-41
2024/04/01 09:16:07;;;;;;;1.98;0.85;;;;;;;18.50;57.15;97812.09;4990433;28;20046;-43
2024/04/01 09:18:36;;;;;;;1.42;1.33;;;;;;;18.62;56.03;97816.44;4998577;28;20411;-42
2024/04/01 09:21:04;;;;;;;0.85;0.43;;;;;;;18.27;55.89;97811.13;4996653;28;20057;-42
2024/04/01 09:23:31;;;;;;;1.90;0.93;;;;;;;18.40;57.51;97816.34;4995143;28;20119;-42
2024/04/01 09:25:59;;;;;;;2.00;0.93;;;;;;;18.30;55.87;97810.91;4988330;28;20050;-46
2024/04/01 09:28:25;;;;;;;1.45;1.10;;;;;;;17.96;55.67;97809.66;4971854;28;20045;-42
2024/04/01 09:30:51;;;;;;;5.53;2.83;;;;;;;17.66;55.51;97818.66;4992408;28;20053;-43
2024/04/01 09:33:16;;;;;;;3.05;0.80;;;;;;;17.32;55.51;97821.78;4992803;28;20582;-42
2024/04/01 09:35:43;;;;;;;2.05;1.38;;;;;;;16.84;55.48;97832.72;5008870;28;20131;-42
2024/04/01 09:38:08;;;;;;;1.65;1.15;;;;;;;16.40;56.11;97835.44;4991446;28;20438;-40
2024/04/01 09:40:34;;;;;;;5.95;2.75;;;;;;;16.24;57.55;97840.75;4988865;28;20054;-41
2024/04/01 09:43:00;;;;;;;3.38;1.70;;;;;;;16.16;57.18;97833.41;4986589;28;20423;-43
2024/04/01 09:45:28;;;;;;;2.28;1.13;;;;;;;16.44;57.21;97836.91;4991501;28;20601;-42
2024/04/01 09:47:54;;;;;;;1.80;1.50;;;;;;;16.16;56.47;97840.41;4998789;28;20050;-43
2024/04/01 09:50:20;;;;;;;1.73;0.65;;;;;;;15.80;56.78;97832.06;5003336;28;20839;-42
2024/04/01 09:52:46;;;;;;;0.85;0.85;;;;;;;15.16;56.70;97844.41;4989028;28;20054;-41
2024/04/01 09:55:20;;;;;;;1.98;0.80;;;;;;;15.16;58.01;97854.84;4994980;28;20050;-42
2024/04/01 10:00:49;;;;;;;1.33;0.80;;;;;;;16.14;57.77;97848.31;5039201;27;20414;-43
2024/04/01 10:03:55;;;;;;;0.90;0.68;;;;;;;16.29;56.60;97858.75;5036845;28;20114;-46
2024/04/01 10:07:00;;;;;;;2.22;1.13;;;;;;;16.17;56.11;97861.19;5049529;28;20530;-42
2024/04/01 10:10:06;;;;;;;1.40;1.27;;;;;;;15.89;56.27;97865.44;5021488;28;20049;-44
2024/04/01 10:13:11;;;;;;;1.38;0.70;;;;;;;15.65;56.45;97865.13;5042975;28;20502;-41
2024/04/01 10:27:27;;;;;;;0.52;0.52;;;;;;;14.58;58.44;97891.00;5027805;28;20918;-44
2024/04/01 10:30:33;;;;;;;1.67;1.10;;;;;;;14.53;59.74;97895.63;5025515;28;20045;-43
2024/04/01 10:33:29;;;;;;;1.15;0.73;;;;;;;14.35;59.59;97893.06;5008778;28;20510;-41
2024/04/01 10:39:07;;;;;;;2.60;1.40;;;;;;;14.04;60.16;97904.22;5087430;27;20410;-42
2024/04/01 10:47:42;;;;;;;2.20;1.08;;;;;;;13.76;61.51;97906.50;5042655;28;20417;-42
2024/04/01 10:50:39;;;;;;;2.60;1.00;;;;;;;13.85;61.39;97903.41;5022407;28;20054;-42
2024/04/01 10:53:39;;;;;;;6.00;1.98;;;;;;;13.95;62.12;97913.38;5021818;28;20045;-43
2024/04/01 11:02:04;;;;;;;5.38;3.38;;;;;;;13.85;61.83;97913.81;5092211;27;20410;-43
2024/04/01 11:07:28;;;;;;;1.42;1.00;;;;;;;13.95;62.27;97929.00;5056670;28;20389;-44
2024/04/01 11:12:57;;;;;;;2.00;1.15;;;;;;;14.30;62.55;97930.69;5074964;27;20384;-42
2024/04/01 11:15:25;;;;;;;1.88;1.38;;;;;;;14.43;61.31;97933.50;5041486;28;20068;-44
2024/04/01 11:17:58;;;;;;;2.22;1.98;;;;;;;14.40;60.81;97930.09;5024970;28;20050;-43
2024/04/01 11:20:46;;;;;;;1.10;0.65;;;;;;;14.48;61.51;97923.66;5036651;28;20052;-41
2024/04/01 11:29:11;;;;;;;0.75;0.60;;;;;;;14.97;60.37;97932.41;5092928;27;20918;-40
2024/04/01 11:31:46;;;;;;;1.17;1.10;;;;;;;14.96;59.55;97941.16;5075680;28;20040;-42
2024/04/01 11:34:20;;;;;;;1.27;0.82;;;;;;;15.07;60.57;97933.59;5039709;28;20170;-42
2024/04/01 11:39:35;;;;;;;2.08;1.90;;;;;;;15.55;59.86;97945.72;5068695;27;20402;-42
2024/04/01 11:42:02;;;;;;;1.65;1.55;;;;;;;15.70;59.44;97951.81;5095566;28;20052;-41
2024/04/01 11:44:28;;;;;;;1.63;1.52;;;;;;;15.93;59.77;97947.88;5073126;28;20049;-41
2024/04/01 11:46:56;;;;;;;2.22;2.13;;;;;;;16.24;58.78;97949.63;5076320;28;20048;-42
2024/04/01 11:49:23;;;;;;;1.40;1.30;;;;;;;16.31;57.63;97951.78;5073457;28;20044;-42
2024/04/01 11:51:53;;;;;;;2.15;2.00;;;;;;;16.48;57.73;97946.47;5101508;28;20110;-40
2024/04/01 11:54:34;;;;;;;;;;;;;;;16.39;57.30;97964.38;5052215;28;20065;-42
2024/04/01 11:57:00;;;;;;;4.05;3.45;;;;;;;16.41;57.45;97957.28;5082046;28;19924;-42
2024/04/01 11:59:31;;;;;;;2.13;2.03;;;;;;;16.42;56.28;97958.94;5077803;28;20048;-41
2024/04/01 12:01:57;;;;;;;2.80;2.60;;;;;;;16.52;57.34;97947.97;5055045;28;20091;-42
2024/04/01 12:04:23;;;;;;;1.67;1.58;;;;;;;16.60;57.23;97955.31;5064371;28;20190;-44
2024/04/01 12:06:51;;;;;;;2.22;2.03;;;;;;;16.63;56.69;97960.34;5055558;28;20044;-43
2024/04/01 12:09:20;;;;;;;1.60;1.50;;;;;;;16.47;55.10;97956.06;5072824;28;20045;-44
2024/04/01 12:11:47;;;;;;;1.73;1.63;;;;;;;16.32;55.52;97968.28;5064047;28;20052;-41
2024/04/01 12:14:14;;;;;;;3.25;2.50;;;;;;;16.02;55.61;97967.41;5110714;28;20177;-43
2024/04/01 12:16:44;;;;;;;3.22;2.97;;;;;;;15.76;55.24;97966.28;5067575;28;20161;-43
2024/04/01 12:19:12;;;;;;;2.30;1.83;;;;;;;15.61;55.73;97974.06;5075700;27;20048;-41